Latest Weather Observations for Yarram Airport

IDV60801

Issued at 9:22 pm EST Wednesday 5 August 2020 (issued every 10 minutes, with the page automatically refreshed every 10 minutes)

About weather observations | Map of weather stations | Latest weather observations for VIC | Other Formats
Station Details ID: 085151 Name: YARRAM AIRPORT Lat: -38.56 Lon: 146.75 Height: 17.9 m
Data from the previous 72 hours. | See also: Recent months at Yarram Airport
Date/Time
EST
Temp
°C
App
Temp
°C
Dew
Point
°C
Rel
Hum
%
Delta-T
°C
Wind Press
QNH
hPa
Press
MSL
hPa
Rain since
9am
mm
Dir  Spd
km/h
Gust
km/h
Spd
kts
Gust
kts
05/09:00pm 6.6 1.5 4.3 85 1.0 WNW 20 26 11 14 1015.4 1015.5 0.6
05/08:30pm 6.5 1.0 4.0 84 1.1 W 22 28 12 15 1015.0 1015.1 0.6
05/08:00pm 6.8 1.7 4.3 84 1.1 W 20 28 11 15 1015.0 1015.1 0.6
05/07:30pm 6.8 1.7 4.3 84 1.1 W 20 26 11 14 1014.7 1014.8 0.6
05/07:00pm 7.4 1.7 4.7 83 1.2 WNW 24 33 13 18 1014.5 1014.6 0.6
05/06:30pm 7.5 2.3 5.5 87 0.9 W 22 43 12 23 1014.2 1014.3 0.4
05/06:02pm 8.3 1.8 4.7 78 1.6 W 28 52 15 28 1014.1 1014.2 0.0
05/06:00pm 8.3 2.1 4.5 77 1.7 W 26 39 14 21 1013.9 1014.0 0.0
05/05:30pm 8.7 2.5 4.1 73 2.0 W 26 35 14 19 1013.7 1013.8 0.0
05/05:00pm 9.1 1.7 4.1 71 2.2 WSW 32 44 17 24 1013.3 1013.4 0.0
05/04:30pm 9.7 2.7 3.9 67 2.5 WSW 30 44 16 24 1013.0 1013.1 0.0
05/04:00pm 10.2 2.6 3.7 64 2.9 W 33 44 18 24 1012.6 1012.7 0.0
05/03:30pm 10.7 1.9 3.5 61 3.2 WSW 39 50 21 27 1012.4 1012.5 0.0
05/03:09pm 11.0 2.6 3.8 61 3.2 WSW 37 57 20 31 1012.5 1012.6 0.0
05/03:00pm 10.9 3.3 3.9 62 3.1 WSW 33 50 18 27 1012.5 1012.6 0.0
05/02:49pm 10.1 1.8 4.3 67 2.6 WSW 37 56 20 30 1012.6 1012.7 0.0
05/02:30pm 11.2 1.6 3.5 59 3.4 WSW 43 57 23 31 1012.3 1012.4 0.0
05/02:08pm 11.3 2.5 3.8 60 3.3 WSW 39 57 21 31 1012.3 1012.4 0.0
05/02:00pm 11.1 1.2 2.7 56 3.6 WSW 44 57 24 31 1012.3 1012.4 0.0
05/01:32pm 11.1 1.3 2.4 55 3.7 WSW 43 61 23 33 1012.4 1012.5 0.0
05/01:30pm 11.4 1.9 3.9 60 3.3 SW 43 56 23 30 1012.4 1012.5 0.0
05/01:00pm 11.6 3.0 4.8 63 3.1 SW 39 57 21 31 1012.6 1012.7 0.0
05/12:30pm 11.2 1.6 4.2 62 3.1 SW 44 65 24 35 1012.7 1012.8 0.0
05/12:05pm 10.9 1.9 4.6 65 2.8 WSW 41 59 22 32 1013.0 1013.1 0.0
05/12:00pm 10.9 1.9 4.8 66 2.8 SW 41 57 22 31 1013.0 1013.1 0.0
05/11:40am 11.0 2.1 5.3 68 2.6 WSW 41 59 22 32 1013.0 1013.1 0.0
05/11:30am 10.7 1.3 4.6 66 2.7 WSW 43 57 23 31 1012.8 1012.9 0.0
05/11:00am 11.1 1.7 5.6 69 2.5 SW 44 61 24 33 1012.7 1012.8 0.0
05/10:37am 11.2 2.4 5.7 69 2.5 WSW 41 59 22 32 1012.7 1012.8 0.0
05/10:30am 10.8 1.0 5.3 69 2.5 WSW 46 59 25 32 1012.7 1012.8 0.0
05/10:00am 10.5 1.0 4.9 68 2.5 WSW 44 63 24 34 1012.0 1012.0 0.0
05/09:30am 10.2 2.1 5.2 71 2.3 WSW 37 56 20 30 1011.8 1011.8 0.0
05/09:14am 9.7 1.9 5.1 73 2.1 WSW 35 54 19 29 1011.7 1011.7 0.0
05/09:00am 9.5 1.7 4.7 72 2.1 WSW 35 50 19 27 1011.7 1011.7 5.0
05/08:30am 9.1 1.2 4.5 73 2.0 WSW 35 44 19 24 1011.3 1011.3 5.0
05/08:00am 8.9 1.6 4.3 73 2.0 WSW 32 44 17 24 1011.0 1011.0 5.0
05/07:30am 9.0 1.5 4.4 73 2.0 WSW 33 46 18 25 1010.7 1010.7 5.0
05/07:00am 8.9 0.2 4.3 73 2.0 WSW 39 50 21 27 1010.0 1010.0 5.0
05/06:30am 9.0 0.4 4.8 75 1.9 WSW 39 50 21 27 1009.5 1009.5 5.0
05/06:04am 9.0 0.5 5.0 76 1.8 WSW 39 57 21 31 1008.9 1008.9 5.0
05/06:00am 9.0 0.9 5.2 77 1.7 WSW 37 52 20 28 1008.8 1008.8 5.0
05/05:30am 9.0 0.5 5.2 77 1.7 WSW 39 56 21 30 1008.3 1008.3 5.0
05/05:00am 9.0 1.0 5.6 79 1.5 WSW 37 50 20 27 1007.9 1007.9 5.0
05/04:30am 9.0 -0.4 5.4 78 1.6 WSW 44 63 24 34 1007.5 1007.5 5.0
05/04:21am 8.9 0.5 5.5 79 1.5 WSW 39 57 21 31 1007.3 1007.3 5.0
05/04:00am 8.4 0.3 5.3 81 1.4 WSW 37 48 20 26 1007.1 1007.1 5.0
05/03:30am 8.3 0.7 5.6 83 1.2 WSW 35 44 19 24 1006.9 1006.9 5.0
05/03:00am 7.8 1.5 5.6 86 1.0 WSW 28 43 15 23 1007.2 1007.2 5.0
05/02:30am 7.6 -0.4 5.6 87 0.9 SW 37 48 20 26 1007.4 1007.4 4.8
05/02:22am 7.5 1.6 5.8 89 0.8 WSW 26 48 14 26 1007.4 1007.4 4.6
05/02:00am 6.2 0.8 4.7 90 0.7 WNW 22 28 12 15 1007.4 1007.4 4.4
05/01:30am 5.7 -0.6 4.0 89 0.7 W 26 33 14 18 1007.5 1007.5 4.4
05/01:00am 4.9 -1.8 3.4 90 0.6 WNW 28 41 15 22 1007.5 1007.5 4.2
05/12:30am 4.2 -1.5 2.6 89 0.6 WNW 22 32 12 17 1008.2 1008.2 3.8
05/12:00am 4.6 -3.1 2.5 86 0.8 WNW 32 43 17 23 1009.0 1009.0 2.4
 
Date/Time
EST
Temp
°C
App
Temp
°C
Dew
Point
°C
Rel
Hum
%
Delta-T
°C
Wind Press
QNH
hPa
Press
MSL
hPa
Rain since
9am
mm
Dir  Spd
km/h
Gust
km/h
Spd
kts
Gust
kts
04/11:38pm 5.5 -1.4 2.3 80 1.3 W 28 46 15 25 1009.5 1009.5 2.0
04/11:30pm 5.3 -1.2 2.5 82 1.1 WNW 26 37 14 20 1009.6 1009.6 1.8
04/11:00pm 5.1 -1.5 2.1 81 1.2 WNW 26 33 14 18 1009.6 1009.6 1.8
04/10:30pm 4.6 -1.3 2.0 83 1.0 WNW 22 30 12 16 1010.1 1010.1 1.8
04/10:00pm 4.0 -1.9 1.5 84 1.0 WNW 22 28 12 15 1010.4 1010.4 1.8
04/09:30pm 3.6 -1.4 1.3 85 0.9 WNW 17 20 9 11 1010.8 1010.8 1.8
04/09:00pm 4.0 -0.9 1.9 86 0.8 WNW 17 22 9 12 1010.9 1010.9 1.8
04/08:30pm 3.9 -1.0 1.9 87 0.8 NW 17 22 9 12 1010.9 1010.9 1.8
04/08:00pm 4.3 -1.6 1.8 84 1.0 WNW 22 30 12 16 1010.4 1010.4 1.8
04/07:30pm 4.8 -1.7 2.5 85 0.9 WNW 26 37 14 20 1010.6 1010.6 1.8
04/07:00pm 3.2 -1.1 1.3 87 0.7 NW 13 17 7 9 1010.3 1010.3 1.6
04/06:30pm 3.6 -1.4 1.5 86 0.8 WNW 17 20 9 11 1010.3 1010.3 1.6
04/06:00pm 4.3 -1.2 2.0 85 0.9 WNW 20 30 11 16 1010.1 1010.1 1.6
04/05:30pm 4.7 -0.5 2.7 87 0.8 W 19 26 10 14 1010.1 1010.1 1.6
04/05:00pm 5.1 -2.5 3.1 87 0.8 WSW 32 41 17 22 1009.6 1009.6 1.6
04/04:30pm 5.3 -2.5 2.8 84 1.0 WSW 33 44 18 24 1009.1 1009.1 1.6
04/04:00pm 5.8 -0.6 3.1 83 1.1 WNW 26 35 14 19 1008.5 1008.5 1.4
04/03:30pm 6.0 -0.9 2.5 78 1.4 WNW 28 44 15 24 1008.5 1008.5 1.4
04/03:00pm 5.1 -1.7 3.0 86 0.9 W 28 41 15 22 1008.8 1008.8 1.4
04/02:40pm 5.1 -1.8 2.5 83 1.1 W 28 52 15 28 1009.0 1009.0 0.8
04/02:30pm 5.7 -0.4 2.9 82 1.2 WNW 24 33 13 18 1008.8 1008.8 0.6
04/02:00pm 7.2 0.4 2.9 74 1.8 WNW 28 37 15 20 1008.7 1008.7 0.2
04/01:30pm 7.0 1.4 3.4 78 1.5 W 22 37 12 20 1008.9 1008.9 0.2
04/01:00pm 6.1 -0.1 4.4 89 0.7 W 26 35 14 19 1009.1 1009.1 0.2
04/12:30pm 5.2 -2.9 3.4 88 0.7 W 35 50 19 27 1008.9 1008.9 0.0
04/12:00pm 7.4 -0.5 2.1 69 2.2 NW 33 52 18 28 1008.3 1008.3 0.0
04/11:44am 7.4 -0.3 2.1 69 2.2 WNW 32 50 17 27 1008.5 1008.5 0.0
04/11:30am 7.8 0.1 2.1 67 2.4 WNW 32 44 17 24 1008.6 1008.6 0.0
04/11:08am 7.0 -0.9 1.3 67 2.3 WNW 32 50 17 27 1009.2 1009.2 0.0
04/11:00am 6.6 -1.3 1.1 68 2.2 WNW 32 48 17 26 1009.3 1009.3 0.0
04/10:30am 6.8 -0.6 1.7 70 2.1 WNW 30 39 16 21 1009.5 1009.5 0.0
04/10:00am 6.5 0.7 2.4 75 1.7 WNW 22 32 12 17 1009.9 1009.9 0.0
04/09:30am 5.9 0.0 1.8 75 1.6 WNW 22 30 12 16 1010.0 1010.0 0.0
04/09:00am 5.2 0.0 2.6 83 1.1 NW 19 24 10 13 1010.2 1010.2 0.8
04/08:30am 4.0 -1.6 1.4 83 1.0 NW 20 30 11 16 1010.1 1010.1 0.8
04/08:00am 4.4 -2.2 2.1 85 0.9 WNW 26 35 14 19 1010.5 1010.5 0.8
04/07:30am 4.1 -0.4 2.3 88 0.7 W 15 20 8 11 1010.7 1010.7 0.8
04/07:00am 4.2 -1.3 2.1 86 0.8 WNW 20 30 11 16 1010.3 1010.3 0.8
04/06:30am 3.9 -0.9 2.6 91 0.5 NW 17 20 9 11 1010.1 1010.1 0.6
04/06:00am 4.2 -1.2 2.7 90 0.6 W 20 28 11 15 1010.4 1010.4 0.6
04/05:30am 4.5 -0.6 3.3 92 0.5 W 19 24 10 13 1010.5 1010.5 0.2
04/05:00am 4.6 -0.5 3.3 91 0.5 W 19 24 10 13 1010.3 1010.3 0.0
04/04:30am 4.9 -2.6 3.4 90 0.6 SW 32 41 17 22 1010.2 1010.2 0.0
04/04:01am 6.0 -2.3 4.0 87 0.8 WSW 37 56 20 30 1009.8 1009.8 0.0
04/04:00am 6.0 -2.7 4.0 87 0.9 WSW 39 56 21 30 1009.7 1009.7 0.0
04/03:56am 6.4 -2.3 4.1 85 1.0 WSW 39 56 21 30 1009.6 1009.6 0.0
04/03:34am 7.4 0.5 2.7 72 2.0 W 28 46 15 25 1008.9 1008.9 0.0
04/03:30am 7.2 0.3 2.7 73 1.9 WNW 28 39 15 21 1009.0 1009.0 0.0
04/03:00am 7.4 1.3 2.9 73 1.9 W 24 35 13 19 1009.2 1009.2 0.0
04/02:30am 7.1 2.0 3.3 77 1.6 W 19 24 10 13 1009.6 1009.6 0.0
04/02:00am 7.1 2.0 3.3 77 1.6 WNW 19 24 10 13 1009.9 1009.9 0.0
04/01:30am 8.1 3.1 3.6 73 1.9 W 19 26 10 14 1010.3 1010.3 0.0
04/01:00am 8.3 3.3 3.6 72 2.0 W 19 26 10 14 1010.5 1010.5 0.0
04/12:30am 9.2 5.3 5.4 77 1.7 W 15 24 8 13 1010.4 1010.4 0.0
04/12:00am 9.0 5.2 5.9 81 1.4 WNW 15 19 8 10 1010.4 1010.4 0.0
 
Date/Time
EST
Temp
°C
App
Temp
°C
Dew
Point
°C
Rel
Hum
%
Delta-T
°C
Wind Press
QNH
hPa
Press
MSL
hPa
Rain since
9am
mm
Dir  Spd
km/h
Gust
km/h
Spd
kts
Gust
kts
03/11:30pm 8.6 4.8 5.9 83 1.2 WNW 15 19 8 10 1010.7 1010.7 0.0
03/11:00pm 9.0 4.5 6.1 82 1.3 WNW 19 28 10 15 1011.0 1011.0 0.0
03/10:30pm 8.9 4.4 6.3 84 1.2 W 19 26 10 14 1011.1 1011.1 0.0
03/10:00pm 8.5 4.8 6.5 87 0.9 W 15 22 8 12 1011.3 1011.3 0.0
03/09:30pm 8.9 6.9 7.0 88 0.9 W 7 9 4 5 1011.7 1011.7 0.0
03/09:00pm 8.8 6.9 6.8 87 0.9 W 6 9 3 5 1012.0 1012.0 0.0
03/08:30pm 8.7 6.7 7.2 90 0.7 WSW 7 11 4 6 1012.1 1012.1 0.0
03/08:00pm 8.5 5.7 7.0 90 0.7 WSW 11 17 6 9 1012.3 1012.4 0.0
03/07:30pm 8.9 5.0 7.2 89 0.8 WSW 17 24 9 13 1012.2 1012.2 0.0
03/07:00pm 9.1 4.7 7.4 89 0.8 SW 20 26 11 14 1011.9 1011.9 0.0
03/06:30pm 10.9 6.2 5.9 71 2.3 WSW 20 32 11 17 1011.7 1011.7 0.0
03/06:00pm 10.4 7.0 5.8 73 2.1 W 13 20 7 11 1011.6 1011.6 0.0
03/05:30pm 9.7 7.0 5.7 76 1.8 W 9 11 5 6 1011.7 1011.7 0.0
03/05:00pm 10.7 7.8 6.3 74 2.1 WNW 11 15 6 8 1011.7 1011.7 0.0
03/04:30pm 11.8 7.1 6.1 68 2.7 W 20 33 11 18 1011.9 1011.9 0.0
03/04:00pm 12.8 7.0 6.2 64 3.1 W 26 35 14 19 1011.8 1011.8 0.0
03/03:30pm 13.4 7.1 5.8 60 3.6 W 28 39 15 21 1011.8 1011.8 0.0
03/03:00pm 13.7 7.8 5.8 59 3.7 W 26 37 14 20 1011.9 1011.9 0.0
03/02:30pm 14.0 7.8 6.1 59 3.8 W 28 35 15 19 1012.2 1012.2 0.0
03/02:00pm 14.2 8.5 6.8 61 3.6 W 26 33 14 18 1012.3 1012.4 0.0
03/01:30pm 13.9 7.4 6.5 61 3.6 W 30 41 16 22 1012.6 1012.7 0.0
03/01:00pm 14.0 8.8 7.1 63 3.4 W 24 32 13 17 1013.1 1013.2 0.0
03/12:30pm 13.0 6.9 6.4 64 3.1 W 28 35 15 19 1013.7 1013.8 0.0
03/12:00pm 12.1 6.4 6.6 69 2.6 W 26 32 14 17 1014.1 1014.2 0.0
03/11:30am 12.6 7.9 7.9 73 2.3 W 22 32 12 17 1014.6 1014.7 0.0
03/11:00am 12.1 6.7 8.0 76 2.0 WNW 26 37 14 20 1015.3 1015.4 0.0
03/10:30am 11.2 5.3 7.7 79 1.7 W 28 35 15 19 1015.7 1015.8 0.0
03/10:00am 11.5 6.8 7.8 78 1.8 W 22 33 12 18 1015.7 1015.8 0.0
03/09:30am 11.2 7.9 8.2 82 1.5 WSW 15 20 8 11 1015.7 1015.8 0.0
03/09:00am 8.6 8.2 8.3 98 0.1 CALM 0 0 0 0 1015.9 1016.0 0.0
03/08:30am 5.9 3.6 5.6 98 0.1 WNW 7 13 4 7 1015.9 1016.0 0.0
03/08:00am 3.1 0.2 2.8 98 0.1 NNW 7 9 4 5 1016.0 1016.1 0.0
03/07:30am 1.3 -1.9 1.0 98 0.1 N 7 7 4 4 1016.0 1016.1 0.0
03/07:00am 0.6 -1.4 0.2 97 0.1 CALM 0 2 0 1 1016.1 1016.2 0.0
03/06:30am 0.8 -1.1 0.4 97 0.1 CALM 0 0 0 0 1015.9 1016.0 0.0
03/06:00am 1.0 -2.0 0.6 97 0.1 NW 6 7 3 4 1015.8 1015.9 0.0
03/05:30am 0.7 -1.2 0.3 97 0.1 CALM 0 0 0 0 1015.8 1015.9 0.0
03/05:00am 1.0 -0.9 0.6 97 0.1 CALM 0 0 0 0 1015.8 1015.9 0.0
03/04:30am 0.9 -2.1 0.5 97 0.1 NW 6 7 3 4 1016.0 1016.1 0.0
03/04:00am 1.8 -1.7 1.4 97 0.2 WNW 9 15 5 8 1016.2 1016.3 0.0
03/03:30am 1.4 -1.6 1.0 97 0.1 W 6 9 3 5 1016.5 1016.6 0.0
03/03:00am 1.6 -0.2 1.2 97 0.2 CALM 0 0 0 0 1016.7 1016.8 0.0
03/02:30am 1.6 -1.0 1.2 97 0.2 NW 4 7 2 4 1017.2 1017.3 0.0
03/02:00am 1.4 -1.2 0.8 96 0.2 W 4 9 2 5 1017.5 1017.6 0.0
03/01:30am 3.5 2.0 3.1 97 0.2 CALM 0 0 0 0 1018.0 1018.1 0.0
03/01:00am 3.0 1.4 2.6 97 0.2 CALM 0 0 0 0 1018.5 1018.6 0.0
03/12:30am 3.8 1.2 3.4 97 0.2 NE 6 9 3 5 1018.8 1018.9 0.0
03/12:00am 3.4 1.9 2.8 96 0.2 CALM 0 0 0 0 1019.3 1019.4 0.0
 
Date/Time
EST
Temp
°C
App
Temp
°C
Dew
Point
°C
Rel
Hum
%
Delta-T
°C
Wind Press
QNH
hPa
Press
MSL
hPa
Rain since
9am
mm
Dir  Spd
km/h
Gust
km/h
Spd
kts
Gust
kts
02/11:30pm 3.4 1.9 2.8 96 0.2 CALM 0 0 0 0 1019.7 1019.8 0.0
02/11:00pm 4.0 2.6 3.4 96 0.2 CALM 0 0 0 0 1020.3 1020.4 0.0
02/10:30pm 4.5 3.2 3.9 96 0.3 CALM 0 0 0 0 1020.5 1020.6 0.0
02/10:00pm 4.3 2.9 3.7 96 0.2 CALM 0 0 0 0 1020.6 1020.7 0.0
02/09:30pm 4.3 1.6 3.6 95 0.3 N 7 7 4 4 1020.9 1021.0 0.0

Other formats

Comma delimited format used in spreadsheet applications
http://www.bom.gov.au/fwo/IDV60801/IDV60801.95890.axf

JavaScript Object Notation format (JSON) in row-major order
http://www.bom.gov.au/fwo/IDV60801/IDV60801.95890.json

Data quality

Most of these data are generated automatically and are frequently updated. Quality checks on data are not normally performed. It is possible for incorrect values to appear. Refer to information at About Latest Weather Observations and please check the disclaimer before using these data.